FR2347 / EI-FZL 7700 Squawk Report (17th of September, 2019)

Aircraft B738 Reg No. EI-FZL Age 2 years old
Model 737 Jet engines 2 First flight 08-04-17
Registered 20-04-17 Rollout N/A Delivered 20-04-17
Construction No. 44784 Line No. 6366 Series 800
ADSHEX 4CAB70 Airline name Ryanair Owner N/A
Airfield based Dublin~Co Dublin~EI First tracked 2017-07-13 08:07:00

Flight history for EI-FZL

Route Flight No Date Playback
Brussels South Charleroi (CRL) - Malaga (AGP) FR1916 2019-10-21 19:57:00
Malaga (AGP) - Brussels South Charleroi (CRL) FR1915 2019-10-21 17:21:00
Brussels Airport (BRU) - Malaga (AGP) FR2943 2019-10-21 11:52:00
Malaga (AGP) - Brussels Airport (BRU) FR2944 2019-10-21 09:11:00
Schiphol (AMS) - Malaga (AGP) FR2335 2019-10-21 05:27:00
Malaga (AGP) - Schiphol (AMS) FR2334 2019-10-20 16:39:00
Dublin (DUB) - Malaga (AGP) FR7044 2019-10-20 13:56:00
Malaga (AGP) - Dublin (DUB) FR7045 2019-10-20 08:12:00
Glasgow (GLA) - Malaga (AGP) FR2609 2019-10-20 05:44:00
Malaga (AGP) - Glasgow (GLA) FR2608 2019-10-19 17:23:00
Bremen Airport (BRE) - Malaga (AGP) FR3658 2019-10-19 13:48:00
Malaga (AGP) - Bremen Airport (BRE) FR3659 2019-10-19 09:24:00
Bergamo Orio Al Serio (BGY) - Malaga (AGP) FR4673 2019-10-19 05:47:00
Malaga (AGP) - Bergamo Orio Al Serio (BGY) FR4674 2019-10-18 16:33:00
M R Stefanik (BTS) - Malaga (AGP) FR2534 2019-10-18 14:13:00
Malaga (AGP) - M R Stefanik (BTS) FR2533 2019-10-18 08:37:00
Son Sant Joan (PMI) - Malaga (AGP) FR5676 2019-10-17 20:13:00
Malaga (AGP) - Son Sant Joan (PMI) FR5677 2019-10-17 18:04:00
Santander (SDR) - Malaga (AGP) FR2594 2019-10-17 16:51:00
Malaga (AGP) - Santander (SDR) FR2593 2019-10-17 15:00:00
Time Lat Lon Altitude Heading Speed Vertical Rate
2019-09-17 08:38:28 GMT 53.867538 -1.650716 0 90 0 0
2019-09-17 08:38:02 GMT 53.867535 -1.650735 0 90 0 0
2019-09-17 08:37:05 GMT 53.867538 -1.650716 0 90 0 0
2019-09-17 08:36:56 GMT 53.867546 -1.650735 0 90 0 0
2019-09-17 08:36:41 GMT 53.867546 -1.650794 0 92 11 0
2019-09-17 08:36:28 GMT 53.867550 -1.651544 0 92 11 0
2019-09-17 08:36:23 GMT 53.867569 -1.651991 0 64 11 0
2019-09-17 08:36:13 GMT 53.867340 -1.652893 0 92 13 0
2019-09-17 08:36:02 GMT 53.867374 -1.653806 0 120 8 0
2019-09-17 08:35:50 GMT 53.867752 -1.654168 0 171 12 0
2019-09-17 08:35:40 GMT 53.868130 -1.654594 0 95 12 0
2019-09-17 08:33:07 GMT 53.860336 -1.652030 350 318 138 -512
2019-09-17 08:33:03 GMT 53.858471 -1.649161 500 318 138 -832
2019-09-17 08:32:58 GMT 53.855446 -1.644476 500 318 138 -768
2019-09-17 08:32:52 GMT 53.853241 -1.641122 550 318 138 -768
2019-09-17 08:32:46 GMT 53.850449 -1.636727 625 318 135 -896
2019-09-17 08:32:43 GMT 53.849022 -1.634539 725 319 134 -960
2019-09-17 08:32:37 GMT 53.846134 -1.630177 750 318 133 -832
2019-09-17 08:32:31 GMT 53.843716 -1.626461 825 318 134 -704
2019-09-17 08:32:26 GMT 53.841202 -1.622503 875 317 133 -512
2019-09-17 08:32:22 GMT 53.839386 -1.619595 950 318 132 -576
2019-09-17 08:32:15 GMT 53.836311 -1.614829 975 322 133 -512
2019-09-17 08:32:12 GMT 53.834030 -1.612001 1,025 333 132 -1088
2019-09-17 08:32:05 GMT 53.830124 -1.608528 1,075 335 132 -1088
2019-09-17 08:32:01 GMT 53.828213 -1.607235 1,200 341 131 -1088
2019-09-17 08:31:56 GMT 53.826050 -1.605887 1,275 340 130 -960
2019-09-17 08:31:53 GMT 53.823761 -1.604553 1,325 340 130 -640
2019-09-17 08:31:47 GMT 53.820145 -1.602199 1,400 335 129 -704
2019-09-17 08:31:44 GMT 53.819042 -1.601338 1,425 325 149 -832
2019-09-17 08:31:40 GMT 53.817368 -1.599884 1,450 328 131 -640
2019-09-17 08:31:37 GMT 53.815178 -1.597461 1,500 324 133 -512
2019-09-17 08:31:34 GMT 53.813690 -1.595607 1,525 324 135 -256
2019-09-17 08:31:29 GMT 53.809708 -1.590820 1,575 325 141 -704
2019-09-17 08:31:23 GMT 53.808197 -1.588937 1,725 325 144 -832
2019-09-17 08:31:18 GMT 53.805130 -1.585249 1,675 324 146 -768
2019-09-17 08:31:13 GMT 53.802338 -1.581796 1,750 325 150 -832
2019-09-17 08:31:08 GMT 53.799408 -1.578265 1,825 325 152 -768
2019-09-17 08:31:05 GMT 53.798279 -1.576942 1,850 325 154 -896
2019-09-17 08:31:02 GMT 53.796158 -1.574341 1,900 325 157 -1088
2019-09-17 08:30:59 GMT 53.794323 -1.572257 1,950 325 160 -1024
2019-09-17 08:30:55 GMT 53.792088 -1.569591 2,075 325 164 -960
2019-09-17 08:30:52 GMT 53.789886 -1.566886 2,075 325 168 -960
2019-09-17 08:30:46 GMT 53.786591 -1.562962 2,175 325 169 -1024
2019-09-17 08:30:43 GMT 53.784714 -1.560608 2,200 325 170 -1024
2019-09-17 08:30:40 GMT 53.782219 -1.557554 2,275 325 172 -896
2019-09-17 08:30:36 GMT 53.780457 -1.555429 2,325 325 175 -704
2019-09-17 08:30:33 GMT 53.778263 -1.552869 2,350 325 175 -768
2019-09-17 08:30:30 GMT 53.775650 -1.549700 2,425 325 183 -960
2019-09-17 08:30:26 GMT 53.772629 -1.546083 2,450 325 177 -1024
2019-09-17 08:30:23 GMT 53.771530 -1.544756 2,475 325 177 -1024
2019-09-17 08:30:19 GMT 53.769047 -1.541883 2,575 325 178 -1024
2019-09-17 08:30:15 GMT 53.765671 -1.537851 2,650 325 180 -832
2019-09-17 08:30:12 GMT 53.764343 -1.536228 2,675 325 180 -768
2019-09-17 08:30:09 GMT 53.761826 -1.533299 2,725 325 182 -960
2019-09-17 08:30:06 GMT 53.760132 -1.531259 2,900 324 188 -1024
2019-09-17 08:30:03 GMT 53.753082 -1.522627 2,925 324 187 -1088
2019-09-17 08:29:57 GMT 53.753082 -1.522627 2,925 324 188 -1024
2019-09-17 08:29:52 GMT 53.750336 -1.519174 3,000 325 187 -1088
2019-09-17 08:29:48 GMT 53.747269 -1.515564 3,075 329 185 -1152
2019-09-17 08:29:44 GMT 53.744476 -1.512739 3,550 351 181 -1280
2019-09-17 08:29:41 GMT 53.742508 -1.511091 3,200 339 183 -1280
2019-09-17 08:29:37 GMT 53.738693 -1.509004 3,300 351 181 -1280
2019-09-17 08:29:33 GMT 53.735527 -1.508197 3,375 2 181 -576
2019-09-17 08:29:30 GMT 53.732895 -1.508030 3,450 4 181 -576
2019-09-17 08:29:27 GMT 53.729614 -1.508277 3,450 6 181 -576
2019-09-17 08:29:23 GMT 53.727383 -1.508843 3,475 18 183 -448
2019-09-17 08:29:20 GMT 53.725239 -1.509651 3,500 15 182 -448
2019-09-17 08:29:17 GMT 53.722492 -1.511509 3,525 25 184 -448
2019-09-17 08:29:13 GMT 53.717464 -1.517244 3,675 48 190 -384
2019-09-17 08:29:10 GMT 53.717464 -1.517244 3,575 45 189 -384
2019-09-17 08:29:07 GMT 53.715271 -1.521293 3,675 55 193 -320
2019-09-17 08:29:02 GMT 53.712902 -1.527665 3,625 75 201 -256
2019-09-17 08:28:58 GMT 53.711784 -1.532189 3,650 75 201 -256
2019-09-17 08:28:55 GMT 53.711086 -1.536632 3,650 82 205 -384
2019-09-17 08:28:51 GMT 53.710388 -1.543256 3,675 82 205 -384
2019-09-17 08:28:47 GMT 53.709961 -1.549543 3,725 83 207 -448
2019-09-17 08:28:44 GMT 53.709599 -1.554323 3,750 83 208 -512
2019-09-17 08:28:41 GMT 53.709366 -1.558281 3,775 83 208 -512
2019-09-17 08:28:38 GMT 53.708954 -1.564296 3,800 83 210 -576
2019-09-17 08:28:35 GMT 53.708633 -1.569083 3,800 83 211 -576
2019-09-17 08:28:30 GMT 53.708157 -1.576619 3,875 83 214 -320
2019-09-17 08:28:27 GMT 53.707783 -1.582193 3,875 82 216 -192
2019-09-17 08:28:23 GMT 53.707176 -1.589867 3,950 83 221 -256
2019-09-17 08:28:20 GMT 53.706898 -1.594068 4,200 103 233 -1024
2019-09-17 08:28:17 GMT 53.706524 -1.599480 4,000 89 226 -1280
2019-09-17 08:28:14 GMT 53.706341 -1.603277 3,975 89 226 -1088
2019-09-17 08:28:10 GMT 53.706387 -1.612567 4,150 97 229 -1472
2019-09-17 08:28:07 GMT 53.706665 -1.617031 4,125 100 230 -1344
2019-09-17 08:28:04 GMT 53.707226 -1.622018 4,175 102 231 -1152
2019-09-17 08:28:00 GMT 53.708294 -1.629773 4,250 103 234 -1088
2019-09-17 08:27:56 GMT 53.709320 -1.636721 4,325 103 234 -1152
2019-09-17 08:27:53 GMT 53.709824 -1.640337 4,375 103 235 -1152
2019-09-17 08:27:50 GMT 53.710693 -1.646380 4,425 103 235 -1152
2019-09-17 08:27:47 GMT 53.711884 -1.654306 4,500 103 237 -960
2019-09-17 08:27:44 GMT 53.712532 -1.658693 4,550 103 238 -896
2019-09-17 08:27:41 GMT 53.713043 -1.662490 4,575 103 241 -1024
2019-09-17 08:27:38 GMT 53.713852 -1.667960 4,600 103 241 -1152
2019-09-17 08:27:35 GMT 53.714626 -1.673315 4,700 103 243 -1088
2019-09-17 08:27:32 GMT 53.716324 -1.684989 4,775 103 244 -960
2019-09-17 08:27:29 GMT 53.716324 -1.684989 5,350 102 249 -1024
2019-09-17 08:27:26 GMT 53.717148 -1.690639 4,850 103 247 -960
2019-09-17 08:27:23 GMT 53.718658 -1.701547 5,000 103 251 -1152
2019-09-17 08:27:17 GMT 53.720352 -1.713786 5,000 103 251 -1152
2019-09-17 08:27:14 GMT 53.720352 -1.713786 5,050 103 252 -1280
2019-09-17 08:27:11 GMT 53.721039 -1.718890 5,100 103 252 -1344
2019-09-17 08:27:08 GMT 53.721748 -1.724207 5,175 103 253 -1280
2019-09-17 08:27:05 GMT 53.723328 -1.735604 5,275 103 257 -832
2019-09-17 08:27:02 GMT 53.723328 -1.735604 5,300 103 258 -832
2019-09-17 08:26:59 GMT 53.724121 -1.741171 5,300 103 259 -768
2019-09-17 08:26:56 GMT 53.724976 -1.747532 5,375 103 263 -704
2019-09-17 08:26:53 GMT 53.725983 -1.754674 5,425 103 265 -640
2019-09-17 08:26:50 GMT 53.726807 -1.760559 5,425 102 266 -704
2019-09-17 08:26:47 GMT 53.727448 -1.765424 5,550 102 279 -1024
2019-09-17 08:26:44 GMT 53.729462 -1.780099 5,600 102 274 -960
2019-09-17 08:26:41 GMT 53.729462 -1.780099 5,550 102 274 -960
2019-09-17 08:26:35 GMT 53.731430 -1.794811 5,800 102 283 -1216
2019-09-17 08:26:32 GMT 53.731888 -1.798462 6,800 102 296 -1856
2019-09-17 08:26:29 GMT 53.732574 -1.803720 5,725 102 281 -1152
2019-09-17 08:26:26 GMT 53.733536 -1.810939 5,775 102 283 -1216
2019-09-17 08:26:23 GMT 53.734222 -1.816119 5,875 102 284 -1280
2019-09-17 08:26:20 GMT 53.735229 -1.823887 5,900 102 286 -1344
2019-09-17 08:26:17 GMT 53.735916 -1.828988 6,000 102 287 -1344
2019-09-17 08:26:14 GMT 53.737381 -1.839975 6,100 102 290 -1536
2019-09-17 08:26:10 GMT 53.738388 -1.847665 6,175 102 292 -1600
2019-09-17 08:26:07 GMT 53.738880 -1.851116 6,325 102 302 -1472
2019-09-17 08:26:04 GMT 53.740185 -1.860890 6,275 102 293 -1664
2019-09-17 08:26:01 GMT 53.740974 -1.866949 6,450 102 294 -1664
2019-09-17 08:25:58 GMT 53.741730 -1.872541 6,450 102 294 -1664
2019-09-17 08:25:55 GMT 53.742599 -1.879211 6,800 102 296 -1856
2019-09-17 08:25:52 GMT 53.743835 -1.888314 6,725 102 296 -1920
2019-09-17 08:25:48 GMT 53.744930 -1.896676 6,850 102 296 -1920
2019-09-17 08:25:45 GMT 53.745537 -1.901443 6,975 102 297 -1920
2019-09-17 08:25:42 GMT 53.746307 -1.907305 7,000 102 298 -1856
2019-09-17 08:25:39 GMT 53.747631 -1.916953 7,125 102 298 -1792
2019-09-17 08:25:36 GMT 53.748421 -1.922931 7,375 102 301 -1408
2019-09-17 08:25:33 GMT 53.750061 -1.935006 7,375 102 300 -1472
2019-09-17 08:25:27 GMT 53.751205 -1.943717 7,450 102 302 -1408
2019-09-17 08:25:24 GMT 53.751938 -1.949210 7,500 102 302 -1472
2019-09-17 08:25:21 GMT 53.752750 -1.955082 7,750 102 307 -1600
2019-09-17 08:25:18 GMT 53.753860 -1.963806 7,600 102 305 -1536
2019-09-17 08:25:15 GMT 53.755096 -1.972988 7,750 102 306 -1536
2019-09-17 08:25:12 GMT 53.755737 -1.977774 8,025 102 308 -1792
2019-09-17 08:25:09 GMT 53.756477 -1.983436 7,900 102 308 -1792
2019-09-17 08:25:06 GMT 53.757641 -1.992322 7,950 102 308 -1792
2019-09-17 08:25:03 GMT 53.758385 -1.998138 8,000 102 308 -1792
2019-09-17 08:25:00 GMT 53.759399 -2.005868 8,200 102 309 -1664
2019-09-17 08:24:57 GMT 53.760292 -2.012760 8,225 102 309 -1600
2019-09-17 08:24:54 GMT 53.761272 -2.020515 8,300 102 311 -1728
2019-09-17 08:24:51 GMT 53.762203 -2.027866 8,400 102 311 -1728
2019-09-17 08:24:48 GMT 53.762856 -2.032955 8,450 102 312 -1728
2019-09-17 08:24:45 GMT 53.764111 -2.042811 8,600 102 313 -1856
2019-09-17 08:24:39 GMT 53.766724 -2.062605 8,775 102 315 -1856
2019-09-17 08:24:36 GMT 53.766724 -2.062605 8,850 102 316 -1792
2019-09-17 08:24:33 GMT 53.767696 -2.070034 8,925 102 317 -1792
2019-09-17 08:24:30 GMT 53.768486 -2.076012 9,000 102 317 -1856
2019-09-17 08:24:27 GMT 53.769791 -2.085990 9,150 102 318 -1856
2019-09-17 08:24:24 GMT 53.770660 -2.092425 9,450 102 319 -1792
2019-09-17 08:24:21 GMT 53.771759 -2.100821 9,375 102 320 -1856
2019-09-17 08:24:18 GMT 53.773190 -2.111960 9,450 102 320 -1856
2019-09-17 08:24:12 GMT 53.774231 -2.119812 9,675 102 321 -1792
2019-09-17 08:24:08 GMT 53.776772 -2.139587 9,750 102 322 -1664
2019-09-17 08:24:05 GMT 53.776772 -2.139587 9,800 102 323 -1664
2019-09-17 08:24:01 GMT 53.777847 -2.147984 10,050 102 323 -1792
2019-09-17 08:23:57 GMT 53.779518 -2.161156 9,975 102 324 -1920
2019-09-17 08:23:54 GMT 53.780079 -2.165114 10,400 102 323 -2112
2019-09-17 08:23:51 GMT 53.780914 -2.171739 10,375 102 324 -2048
2019-09-17 08:23:48 GMT 53.781784 -2.178040 10,275 102 324 -2048
2019-09-17 08:23:45 GMT 53.783478 -2.190157 10,475 105 326 -1920
2019-09-17 08:23:42 GMT 53.784210 -2.195068 10,500 107 327 -2048
2019-09-17 08:23:39 GMT 53.785431 -2.201951 10,675 111 328 -2240
2019-09-17 08:23:35 GMT 53.787506 -2.211469 11,000 111 328 -2368
2019-09-17 08:23:32 GMT 53.789154 -2.218532 10,825 111 328 -2304
2019-09-17 08:23:29 GMT 53.791214 -2.227243 11,100 111 328 -2240
2019-09-17 08:23:26 GMT 53.792648 -2.233133 11,100 111 328 -2048
2019-09-17 08:23:23 GMT 53.794415 -2.240807 11,200 111 328 -1920
2019-09-17 08:23:20 GMT 53.796066 -2.247803 11,350 111 329 -1600
2019-09-17 08:23:14 GMT 53.799675 -2.263103 11,475 111 330 -1600
2019-09-17 08:23:11 GMT 53.800827 -2.268049 11,550 111 332 -1728
2019-09-17 08:23:07 GMT 53.803574 -2.279977 11,825 111 332 -1920
2019-09-17 08:23:04 GMT 53.804581 -2.284372 11,850 111 332 -1920
2019-09-17 08:23:01 GMT 53.806641 -2.293082 11,900 111 333 -1984
2019-09-17 08:22:58 GMT 53.808475 -2.301070 11,950 111 332 -1984
2019-09-17 08:22:54 GMT 53.810196 -2.308502 12,025 111 332 -2048
2019-09-17 08:22:51 GMT 53.812664 -2.319246 12,300 111 333 -2048
2019-09-17 08:22:47 GMT 53.814339 -2.326678 12,300 111 333 -1984
2019-09-17 08:22:44 GMT 53.816017 -2.333948 12,550 111 333 -1984
2019-09-17 08:22:40 GMT 53.818176 -2.343462 12,550 111 334 -1984
2019-09-17 08:22:36 GMT 53.820438 -2.353336 12,675 112 334 -1984
2019-09-17 08:22:33 GMT 53.822113 -2.360413 12,800 113 335 -1984
2019-09-17 08:22:30 GMT 53.823792 -2.367150 12,825 113 335 -1984
2019-09-17 08:22:27 GMT 53.826233 -2.375872 13,000 118 337 -1984
2019-09-17 08:22:24 GMT 53.828354 -2.382660 13,150 120 338 -1856
2019-09-17 08:22:20 GMT 53.831451 -2.391724 13,200 120 339 -1920
2019-09-17 08:22:16 GMT 53.834656 -2.400984 13,275 120 339 -1984
2019-09-17 08:22:13 GMT 53.837494 -2.409223 13,500 120 341 -1792
2019-09-17 08:22:10 GMT 53.839199 -2.414165 13,600 120 343 -1600
2019-09-17 08:22:07 GMT 53.841480 -2.420627 13,575 120 343 -1664
2019-09-17 08:22:03 GMT 53.844955 -2.430411 14,025 122 349 -1600
2019-09-17 08:22:00 GMT 53.847336 -2.437160 13,850 121 347 -1600
2019-09-17 08:21:57 GMT 53.849766 -2.443973 13,800 121 346 -1600
2019-09-17 08:21:54 GMT 53.852886 -2.452698 13,975 122 349 -1600
2019-09-17 08:21:51 GMT 53.855896 -2.460938 14,050 124 350 -1792
2019-09-17 08:21:48 GMT 53.857635 -2.465542 14,100 124 350 -1792
2019-09-17 08:21:45 GMT 53.860016 -2.471375 14,600 133 352 -1856
2019-09-17 08:21:42 GMT 53.866837 -2.485343 14,400 134 352 -1856
2019-09-17 08:21:39 GMT 53.866837 -2.485343 14,450 137 353 -1728
2019-09-17 08:21:33 GMT 53.875031 -2.497977 14,550 141 353 -1600
2019-09-17 08:21:30 GMT 53.877186 -2.500682 14,675 145 353 -1728
2019-09-17 08:21:27 GMT 53.881851 -2.505981 14,750 149 353 -2048
2019-09-17 08:21:23 GMT 53.887711 -2.511396 15,000 156 351 -2432
2019-09-17 08:21:20 GMT 53.891510 -2.514300 15,000 159 351 -2496
2019-09-17 08:21:17 GMT 53.895992 -2.517242 15,125 164 348 -2368
2019-09-17 08:21:14 GMT 53.899979 -2.519322 15,175 164 348 -2368
2019-09-17 08:21:11 GMT 53.906841 -2.522009 15,450 171 344 -2368
2019-09-17 08:21:08 GMT 53.909821 -2.522853 15,550 175 342 -2688
2019-09-17 08:21:05 GMT 53.914520 -2.523624 15,600 178 340 -3008
2019-09-17 08:21:02 GMT 53.919434 -2.523873 15,750 179 338 -3136
2019-09-17 08:20:59 GMT 53.924252 -2.523543 16,025 187 330 -3264
2019-09-17 08:20:56 GMT 53.933605 -2.520958 16,175 193 322 -3136
2019-09-17 08:20:53 GMT 53.933605 -2.520958 16,275 195 321 -3136
2019-09-17 08:20:50 GMT 53.938309 -2.518777 16,375 197 318 -3008
2019-09-17 08:20:47 GMT 53.941772 -2.516732 16,700 248 277 -2048
2019-09-17 08:20:44 GMT 53.945663 -2.513930 16,700 216 298 -2368
2019-09-17 08:20:41 GMT 53.948685 -2.511318 16,825 209 304 -3008
2019-09-17 08:20:38 GMT 53.953445 -2.506374 17,125 218 297 -2304
2019-09-17 08:20:35 GMT 53.956745 -2.502217 17,125 223 293 -2048
2019-09-17 08:20:32 GMT 53.959538 -2.498259 17,200 229 288 -2048
2019-09-17 08:20:29 GMT 53.965210 -2.487854 17,425 233 286 -2048
2019-09-17 08:20:26 GMT 53.965210 -2.487854 17,450 235 285 -2048
2019-09-17 08:20:23 GMT 53.969604 -2.476475 17,575 240 282 -1984
2019-09-17 08:20:20 GMT 53.969604 -2.476475 17,775 244 280 -2048
2019-09-17 08:20:16 GMT 53.972897 -2.463603 17,775 250 277 -2048
2019-09-17 08:20:13 GMT 53.972897 -2.463603 17,850 252 277 -1920
2019-09-17 08:20:10 GMT 53.974228 -2.456857 17,925 253 277 -1920
2019-09-17 08:20:07 GMT 53.975269 -2.451324 18,050 253 277 -1920
2019-09-17 08:20:04 GMT 53.976517 -2.444536 18,150 253 277 -1920
2019-09-17 08:20:01 GMT 53.977707 -2.438180 18,250 253 278 -1920
2019-09-17 08:19:55 GMT 53.980114 -2.425474 18,425 252 280 -1920
2019-09-17 08:19:52 GMT 53.981094 -2.420367 18,525 252 281 -1920
2019-09-17 08:19:49 GMT 53.982422 -2.413539 18,625 252 281 -1920
2019-09-17 08:19:46 GMT 53.985233 -2.399543 18,825 251 282 -1984
2019-09-17 08:19:42 GMT 53.985233 -2.399543 19,125 251 284 -2048
2019-09-17 08:19:39 GMT 53.988167 -2.385164 19,050 251 285 -1856
2019-09-17 08:19:36 GMT 53.988167 -2.385164 19,150 251 285 -1856
2019-09-17 08:19:33 GMT 53.989243 -2.380188 19,225 251 286 -1792
2019-09-17 08:19:30 GMT 53.990891 -2.372341 19,200 251 286 -1792
2019-09-17 08:19:27 GMT 53.992447 -2.365043 19,350 251 288 -1856
2019-09-17 08:19:24 GMT 53.995102 -2.352528 19,650 251 289 -1856
2019-09-17 08:19:20 GMT 53.995102 -2.352528 19,650 251 290 -1728
2019-09-17 08:19:17 GMT 53.996796 -2.344482 19,650 251 290 -1728
2019-09-17 08:19:14 GMT 53.997849 -2.339460 19,750 251 294 -1664
2019-09-17 08:19:11 GMT 53.999496 -2.331691 20,525 250 306 -2624
2019-09-17 08:19:08 GMT 54.000641 -2.326355 19,875 251 293 -1664
2019-09-17 08:19:05 GMT 54.002506 -2.317631 20,000 251 295 -1728
2019-09-17 08:19:02 GMT 54.003437 -2.313188 20,250 250 298 -1664
2019-09-17 08:18:59 GMT 54.004925 -2.306402 20,150 250 297 -1664
2019-09-17 08:18:56 GMT 54.006546 -2.298732 20,275 250 299 -1600
2019-09-17 08:18:53 GMT 54.007812 -2.292992 20,325 250 300 -1600
2019-09-17 08:18:50 GMT 54.008835 -2.288388 20,375 250 303 -1728
2019-09-17 08:18:47 GMT 54.010605 -2.280148 20,475 250 303 -1728
2019-09-17 08:18:44 GMT 54.011909 -2.274331 20,550 250 304 -1856
2019-09-17 08:18:41 GMT 54.014004 -2.264718 20,900 250 305 -1920
2019-09-17 08:18:38 GMT 54.015015 -2.260202 20,725 250 305 -1920
2019-09-17 08:18:35 GMT 54.018448 -2.244507 20,950 250 307 -2240
2019-09-17 08:18:31 GMT 54.018448 -2.244507 21,000 250 307 -2432
2019-09-17 08:18:28 GMT 54.019913 -2.237915 21,100 250 307 -2368
2019-09-17 08:18:25 GMT 54.023266 -2.222793 21,525 250 307 -2624
2019-09-17 08:18:22 GMT 54.023266 -2.222793 21,625 250 306 -2624
2019-09-17 08:18:18 GMT 54.026642 -2.207389 22,025 249 305 -3136
2019-09-17 08:18:14 GMT 54.026642 -2.207389 21,725 250 306 -2624
2019-09-17 08:18:11 GMT 54.028244 -2.200169 21,800 249 306 -3072
2019-09-17 08:18:08 GMT 54.029984 -2.192479 22,050 248 306 -3264
2019-09-17 08:18:05 GMT 54.031788 -2.184664 22,200 238 316 -1344
2019-09-17 08:18:02 GMT 54.033463 -2.177883 22,725 225 337 -1216
2019-09-17 08:17:59 GMT 54.034626 -2.173516 22,575 244 308 -2624
2019-09-17 08:17:56 GMT 54.036301 -2.167603 22,575 242 311 -2048
2019-09-17 08:17:53 GMT 54.038498 -2.161011 22,650 240 314 -1536
2019-09-17 08:17:50 GMT 54.041981 -2.152512 22,725 232 326 -1152
2019-09-17 08:17:47 GMT 54.044914 -2.146777 22,800 227 333 -1216
2019-09-17 08:17:43 GMT 54.048172 -2.141203 22,975 215 355 -1344
2019-09-17 08:17:40 GMT 54.053375 -2.134094 22,975 212 359 -1408
2019-09-17 08:17:37 GMT 54.056580 -2.130327 23,025 212 359 -1408
2019-09-17 08:17:34 GMT 54.061295 -2.125698 23,075 209 365 -1408
2019-09-17 08:17:31 GMT 54.071541 -2.118423 23,375 191 394 -2048
2019-09-17 08:17:27 GMT 54.071541 -2.118423 23,400 193 390 -1856
2019-09-17 08:17:24 GMT 54.081924 -2.113980 23,400 192 391 -1920
2019-09-17 08:17:18 GMT 54.088348 -2.111879 23,575 191 394 -2176
2019-09-17 08:17:15 GMT 54.091782 -2.110866 23,750 190 394 -3392
2019-09-17 08:17:12 GMT 54.097797 -2.108971 24,350 191 401 768
2019-09-17 08:17:09 GMT 54.105835 -2.106628 24,050 190 393 -3520
2019-09-17 08:17:06 GMT 54.110138 -2.105294 24,250 190 392 -3328
2019-09-17 08:17:03 GMT 54.114395 -2.104039 24,375 190 391 -3264
2019-09-17 08:17:00 GMT 54.119957 -2.102428 24,475 190 391 -2752
2019-09-17 08:16:57 GMT 54.125355 -2.100893 24,550 190 391 -1920
2019-09-17 08:16:54 GMT 54.130600 -2.099330 24,650 190 394 -256
2019-09-17 08:16:51 GMT 54.137604 -2.097290 24,650 190 399 384
2019-09-17 08:16:47 GMT 54.143513 -2.095481 24,600 191 410 832
2019-09-17 08:16:44 GMT 54.147236 -2.094350 24,575 191 405 768
2019-09-17 08:16:41 GMT 54.154079 -2.092330 24,500 191 414 832
2019-09-17 08:16:38 GMT 54.158936 -2.090777 24,425 191 416 832
2019-09-17 08:16:35 GMT 54.171570 -2.086775 24,350 191 420 832
2019-09-17 08:16:32 GMT 54.171570 -2.086775 24,350 191 430 1024
2019-09-17 08:16:29 GMT 54.177704 -2.084813 24,300 191 428 960
2019-09-17 08:16:26 GMT 54.181549 -2.083557 24,275 191 430 1024
2019-09-17 08:16:23 GMT 54.188644 -2.081281 24,150 192 438 1664
2019-09-17 08:16:20 GMT 54.194366 -2.079398 23,900 192 440 2432
2019-09-17 08:16:17 GMT 54.199219 -2.077750 23,800 192 439 2432
2019-09-17 08:16:14 GMT 54.206589 -2.075317 23,950 192 439 2624
2019-09-17 08:16:11 GMT 54.213409 -2.073042 23,775 192 439 2304
2019-09-17 08:16:08 GMT 54.219856 -2.070842 23,650 192 439 2368
2019-09-17 08:16:02 GMT 54.232086 -2.066685 23,475 192 439 2496
2019-09-17 08:15:59 GMT 54.237312 -2.064945 23,300 192 440 2304
2019-09-17 08:15:56 GMT 54.248116 -2.061310 23,125 192 439 1920
2019-09-17 08:15:50 GMT 54.253967 -2.059309 22,975 192 438 1664
2019-09-17 08:15:47 GMT 54.260651 -2.057111 22,950 191 437 1472
2019-09-17 08:15:43 GMT 54.268295 -2.054600 22,575 191 433 1984
2019-09-17 08:15:40 GMT 54.274418 -2.052585 22,175 191 414 1792
2019-09-17 08:15:37 GMT 54.285217 -2.049117 22,600 191 433 1984
2019-09-17 08:15:34 GMT 54.285217 -2.049117 22,575 191 433 1920
2019-09-17 08:15:31 GMT 54.291275 -2.047092 22,375 191 430 1728
2019-09-17 08:15:28 GMT 54.299973 -2.044289 22,325 191 429 1728
2019-09-17 08:15:25 GMT 54.305000 -2.042708 22,225 191 428 1728
2019-09-17 08:15:22 GMT 54.310913 -2.040791 22,175 191 428 1728
2019-09-17 08:15:19 GMT 54.314964 -2.039462 22,150 191 427 1728
2019-09-17 08:15:15 GMT 54.323639 -2.036752 22,025 191 424 1280
2019-09-17 08:15:11 GMT 54.331604 -2.034167 21,925 191 421 1280
2019-09-17 08:15:07 GMT 54.338379 -2.032055 21,875 191 419 1408
2019-09-17 08:15:04 GMT 54.345222 -2.029891 21,725 191 418 1664
2019-09-17 08:15:01 GMT 54.357418 -2.026145 21,675 191 416 1792
2019-09-17 08:14:58 GMT 54.357418 -2.026145 21,550 191 415 1792
2019-09-17 08:14:55 GMT 54.362228 -2.024635 21,475 191 414 1792
2019-09-17 08:14:52 GMT 54.373573 -2.021151 21,375 191 412 1600
2019-09-17 08:14:49 GMT 54.373573 -2.021151 21,325 191 411 1536
2019-09-17 08:14:45 GMT 54.380585 -2.018980 21,225 191 409 1664
2019-09-17 08:14:41 GMT 54.386932 -2.016990 21,125 191 409 1728
2019-09-17 08:14:38 GMT 54.394867 -2.014618 19,850 191 406 2432
2019-09-17 08:14:35 GMT 54.397705 -2.013729 20,900 191 406 2560
2019-09-17 08:14:32 GMT 54.403923 -2.011830 20,750 190 406 3072
2019-09-17 08:14:29 GMT 54.409927 -2.010013 20,600 190 406 3520
2019-09-17 08:14:26 GMT 54.414780 -2.008559 20,225 191 408 4480
2019-09-17 08:14:23 GMT 54.421894 -2.006420 19,975 191 413 4544
2019-09-17 08:14:20 GMT 54.425995 -2.005086 19,925 192 417 1152
2019-09-17 08:14:17 GMT 54.433578 -2.002758 19,575 191 416 4544
2019-09-17 08:14:14 GMT 54.437489 -2.001509 19,475 191 416 4544
2019-09-17 08:14:11 GMT 54.444145 -1.999345 19,100 191 420 4480
2019-09-17 08:14:08 GMT 54.454060 -1.996183 18,850 191 422 4416
2019-09-17 08:14:05 GMT 54.454060 -1.996183 18,750 192 423 4416
2019-09-17 08:14:02 GMT 54.459785 -1.994268 18,575 191 424 4352
2019-09-17 08:13:59 GMT 54.465187 -1.992437 18,375 192 425 3840
2019-09-17 08:13:56 GMT 54.477989 -1.988109 18,100 192 427 2752
2019-09-17 08:13:53 GMT 54.477989 -1.988109 18,075 192 421 1088
2019-09-17 08:13:49 GMT 54.484924 -1.985779 17,950 192 425 1344
2019-09-17 08:13:46 GMT 54.492325 -1.983275 17,875 192 421 1088
2019-09-17 08:13:43 GMT 54.498287 -1.981201 17,825 192 420 1088
2019-09-17 08:13:40 GMT 54.503174 -1.979559 17,725 191 415 1280
2019-09-17 08:13:37 GMT 54.507111 -1.978266 17,725 191 416 1280
2019-09-17 08:13:34 GMT 54.513554 -1.976124 17,700 191 411 1984
2019-09-17 08:13:31 GMT 54.518188 -1.974550 17,575 191 411 1984
2019-09-17 08:13:28 GMT 54.523937 -1.972629 17,300 192 408 2240
2019-09-17 08:13:25 GMT 54.530457 -1.970511 17,300 192 408 2240
2019-09-17 08:13:22 GMT 54.544140 -1.965887 17,150 192 405 2240
2019-09-17 08:13:18 GMT 54.544140 -1.965887 17,075 192 404 2176
2019-09-17 08:13:11 GMT 54.557873 -1.961226 16,800 192 401 2048
2019-09-17 08:13:08 GMT 54.561813 -1.959929 16,750 191 400 2048
2019-09-17 08:13:05 GMT 54.568405 -1.957748 16,600 191 397 2048
2019-09-17 08:13:02 GMT 54.572525 -1.956374 16,525 191 395 2048
2019-09-17 08:12:59 GMT 54.577927 -1.954597 16,400 191 394 2048
2019-09-17 08:12:56 GMT 54.584782 -1.952404 16,300 191 393 2112
2019-09-17 08:12:53 GMT 54.594601 -1.949241 16,125 191 390 2176
2019-09-17 08:12:47 GMT 54.599815 -1.947576 15,950 191 387 2176
2019-09-17 08:12:44 GMT 54.605850 -1.945630 15,875 191 385 2176
2019-09-17 08:12:41 GMT 54.610245 -1.944247 15,800 191 385 2176
2019-09-17 08:12:38 GMT 54.614594 -1.942803 15,725 191 383 2112
2019-09-17 08:12:35 GMT 54.619926 -1.941084 15,650 191 382 2112
2019-09-17 08:12:32 GMT 54.625885 -1.939253 15,450 191 377 1856
2019-09-17 08:12:29 GMT 54.631191 -1.937506 15,250 192 369 2240
2019-09-17 08:12:26 GMT 54.636154 -1.935936 15,300 191 373 1792
2019-09-17 08:12:23 GMT 54.641006 -1.934321 14,800 192 369 2304
2019-09-17 08:12:19 GMT 54.647720 -1.932012 15,025 192 368 2624
2019-09-17 08:12:16 GMT 54.652000 -1.930597 14,700 192 367 3200
2019-09-17 08:12:13 GMT 54.663666 -1.926647 14,625 192 368 3456
2019-09-17 08:12:10 GMT 54.663666 -1.926647 14,400 192 368 3456
2019-09-17 08:12:04 GMT 54.673050 -1.923415 14,100 191 368 3968
2019-09-17 08:12:01 GMT 54.678070 -1.921692 13,725 183 375 2624
2019-09-17 08:11:57 GMT 54.683670 -1.920103 13,725 189 371 3712
2019-09-17 08:11:54 GMT 54.689392 -1.918972 13,625 184 374 2816
2019-09-17 08:11:49 GMT 54.699005 -1.918245 13,275 186 367 2560
2019-09-17 08:11:46 GMT 54.702602 -1.918113 13,275 186 367 2560
2019-09-17 08:11:43 GMT 54.708981 -1.917697 13,125 193 357 2432
2019-09-17 08:11:39 GMT 54.717224 -1.916145 12,900 190 363 2624
2019-09-17 08:11:36 GMT 54.721390 -1.914852 12,725 192 359 2560
2019-09-17 08:11:33 GMT 54.725414 -1.913452 12,700 193 358 2432
2019-09-17 08:11:30 GMT 54.729420 -1.911954 12,525 193 353 2816
2019-09-17 08:11:27 GMT 54.735096 -1.909790 12,450 193 354 2752
2019-09-17 08:11:22 GMT 54.743134 -1.906774 12,200 193 352 2880
2019-09-17 08:11:17 GMT 54.751694 -1.903462 11,975 193 349 2368
2019-09-17 08:11:11 GMT 54.760048 -1.900302 11,750 193 345 2496
2019-09-17 08:11:07 GMT 54.767872 -1.897306 11,475 193 341 2624
2019-09-17 08:11:03 GMT 54.773411 -1.895225 11,375 193 339 1984
2019-09-17 08:11:00 GMT 54.781448 -1.892314 10,250 193 336 1152
2019-09-17 08:10:57 GMT 54.781448 -1.892314 11,250 193 331 960
2019-09-17 08:10:53 GMT 54.789505 -1.889325 11,175 192 324 896
2019-09-17 08:10:50 GMT 54.792160 -1.888356 11,075 192 314 1536
2019-09-17 08:10:47 GMT 54.796497 -1.886819 11,075 192 314 1536
2019-09-17 08:10:44 GMT 54.800549 -1.885320 11,000 192 312 2048
2019-09-17 08:10:40 GMT 54.806396 -1.883347 10,450 187 309 3520
2019-09-17 08:10:37 GMT 54.810932 -1.881908 10,625 188 308 3264
2019-09-17 08:10:34 GMT 54.814499 -1.881005 10,500 188 308 3456
2019-09-17 08:10:29 GMT 54.825363 -1.878662 9,900 193 305 3200
2019-09-17 08:10:23 GMT 54.830296 -1.877247 9,850 194 303 3136
2019-09-17 08:10:19 GMT 54.835884 -1.874750 9,475 198 299 3136
2019-09-17 08:10:16 GMT 54.839859 -1.872523 9,375 200 296 3264
2019-09-17 08:10:13 GMT 54.843704 -1.870173 9,300 200 296 3328
2019-09-17 08:10:10 GMT 54.847008 -1.868175 8,950 200 294 3776
2019-09-17 08:10:06 GMT 54.856705 -1.862183 8,750 200 294 3648
2019-09-17 08:10:03 GMT 54.856705 -1.862183 8,700 200 294 3328
2019-09-17 08:09:59 GMT 54.865311 -1.856932 8,475 200 291 3328
2019-09-17 08:09:56 GMT 54.865311 -1.856932 8,325 200 291 3456
2019-09-17 08:09:52 GMT 54.869980 -1.854104 8,125 200 290 3712
2019-09-17 08:09:49 GMT 54.875267 -1.850863 7,825 200 289 3904
2019-09-17 08:09:46 GMT 54.878059 -1.849116 7,700 200 289 3904
2019-09-17 08:09:42 GMT 54.883392 -1.845865 7,425 200 288 3776
2019-09-17 08:09:37 GMT 54.888489 -1.842707 7,175 200 287 3840
2019-09-17 08:09:34 GMT 54.894012 -1.839241 6,900 200 287 3712
2019-09-17 08:09:28 GMT 54.900742 -1.835121 6,475 200 284 3840
2019-09-17 08:09:25 GMT 54.903900 -1.833182 6,400 200 284 3776
2019-09-17 08:09:21 GMT 54.910858 -1.828981 5,650 199 284 4160
2019-09-17 08:09:15 GMT 54.915985 -1.825912 5,725 200 283 2944
2019-09-17 08:09:12 GMT 54.920189 -1.823398 5,525 200 284 4288
2019-09-17 08:09:05 GMT 54.929764 -1.817591 5,050 200 284 3072
2019-09-17 08:09:01 GMT 54.933598 -1.815158 4,900 200 283 2944
2019-09-17 08:08:55 GMT 54.940933 -1.810563 4,650 200 279 2304
2019-09-17 08:08:52 GMT 54.944550 -1.808382 4,575 200 272 1792
2019-09-17 08:08:45 GMT 54.953102 -1.803173 4,400 199 252 1280
2019-09-17 08:08:42 GMT 54.956268 -1.801342 4,400 199 252 1280
2019-09-17 08:08:36 GMT 54.962677 -1.797638 4,200 198 243 2240
2019-09-17 08:08:32 GMT 54.967163 -1.795134 3,975 198 237 3264
2019-09-17 08:08:27 GMT 54.972336 -1.792306 3,725 198 236 3136
2019-09-17 08:08:24 GMT 54.976501 -1.790044 3,525 198 235 2880
2019-09-17 08:08:21 GMT 54.978611 -1.788940 3,425 198 235 2880
2019-09-17 08:08:17 GMT 54.982956 -1.786652 3,225 197 232 2880
2019-09-17 08:08:12 GMT 54.988808 -1.783614 2,950 197 231 3072
2019-09-17 08:08:01 GMT 54.999115 -1.778331 2,425 198 230 3072
2019-09-17 08:07:52 GMT 55.008080 -1.772794 2,025 205 226 2240
2019-09-17 08:07:46 GMT 55.014084 -1.767022 1,825 218 216 1408
2019-09-17 08:07:41 GMT 55.017151 -1.762417 1,725 225 209 1472
2019-09-17 08:07:32 GMT 55.021812 -1.750072 1,500 245 184 1024
2019-09-17 08:07:21 GMT 55.025528 -1.736244 1,250 245 170 2048
2019-09-17 08:07:12 GMT 55.028610 -1.724687 900 246 161 2496
2019-09-17 08:06:52 GMT 55.034988 -1.700800 0 245 160 1600
2019-09-17 08:06:42 GMT 55.037731 -1.690563 -50 246 137 128
2019-09-17 08:06:33 GMT 55.039780 -1.682822 -75 246 100 64
2019-09-17 08:06:20 GMT 55.041855 -1.674999 0 247 30
2019-09-17 08:05:01 GMT 55.042282 -1.673537 0 174 6
2019-09-17 08:04:50 GMT 55.042591 -1.673658 0 174 8
2019-09-17 08:03:38 GMT 55.043308 -1.676310 0 70 15
2019-09-17 08:03:16 GMT 55.042412 -1.679743 0 64 26
2019-09-17 08:03:06 GMT 55.041939 -1.681554 0 64 25
2019-09-17 08:02:54 GMT 55.041378 -1.683655 0 64 25
2019-09-17 08:02:44 GMT 55.040840 -1.685695 0 64 26
2019-09-17 08:02:34 GMT 55.040348 -1.687532 0 64 26
2019-09-17 08:02:26 GMT 55.039959 -1.688986 0 64 25
2019-09-17 08:02:12 GMT 55.039307 -1.691450 0 64 26
2019-09-17 08:02:06 GMT 55.038986 -1.692723 0 64 26
2019-09-17 08:01:54 GMT 55.038445 -1.694745 0 67 25
2019-09-17 08:01:44 GMT 55.038082 -1.696597 0 73 24
2019-09-17 08:01:29 GMT 55.037785 -1.699286 0 87 22
2019-09-17 08:01:17 GMT 55.037739 -1.701407 0 95 17
2019-09-17 08:01:14 GMT 55.037750 -1.701629 0 95 17
2019-09-17 08:00:51 GMT 55.037670 -1.704113 0 28 14
2019-09-17 08:00:43 GMT 55.037201 -1.704315 0 2 15
2019-09-17 08:00:32 GMT 55.036423 -1.704436 0 19 16
2019-09-17 08:00:21 GMT 55.035965 -1.705336 0 81 14
2019-09-17 08:00:09 GMT 55.035942 -1.706709 0 92 13
2019-09-17 08:00:00 GMT 55.035965 -1.707438 0 92 10

Making use of Plane Finder data

You are free to use the raw flight data, aircraft information and images provided in this report for your own purposes provided the data is correctly attributed to Plane Finder. We ask that you please credit Plane Finder and link to planefinder.net in close proximity to the content.

Optionally one of the following logos (no smaller then 150x24px) can be used and must link to planefinder.net

Embedding the Plane Finder map

You are welcome to embed the Plane Finder playback map on your website to offer visitors a more interactive experience. We suggest using the following HTML code:

<iframe src="//planefinder.net/data/report/FR2347-EI-FZL-7700-squawk-2019-09-17/map" width="800" height="600" seamless="seamless"></iframe>

Where our data comes from

Plane Finder has a global network of data feeds and antenna radars that receive data broadcast directly from aircraft. The primary technologies used are ADS-B and MLAT. We also show feeds from the FAA and a FLARM glider feed.

Click here to find out more about the Plane Finder network.

How we collect our data